sensor_id;sensor_type;location;lat;lon;timestamp;P1;P4;P2;P0;N10;N4;N25;N1;N05;TS
43196;SPS30;28816;49.852;18.282;2024-03-08T00:04:19;32.480000;;31.740000;29.140000;;;;;;
43196;SPS30;28816;49.852;18.282;2024-03-08T00:09:21;30.340000;;30.000000;27.950000;;;;;;
43196;SPS30;28816;49.852;18.282;2024-03-08T00:14:23;36.150000;;35.370000;32.870000;;;;;;
43196;SPS30;28816;49.852;18.282;2024-03-08T00:19:26;41.870000;;40.940000;37.570000;;;;;;
43196;SPS30;28816;49.852;18.282;2024-03-08T00:24:28;44.260000;;43.100000;39.680000;;;;;;
43196;SPS30;28816;49.852;18.282;2024-03-08T00:29:30;41.110000;;40.420000;37.600000;;;;;;
43196;SPS30;28816;49.852;18.282;2024-03-08T00:34:32;41.770000;;40.910000;37.880000;;;;;;
43196;SPS30;28816;49.852;18.282;2024-03-08T00:39:35;41.800000;;40.920000;37.630000;;;;;;
43196;SPS30;28816;49.852;18.282;2024-03-08T00:44:37;42.620000;;41.910000;38.780000;;;;;;
43196;SPS30;28816;49.852;18.282;2024-03-08T00:49:39;42.710000;;41.500000;38.220000;;;;;;
43196;SPS30;28816;49.852;18.282;2024-03-08T00:54:41;41.530000;;41.020000;37.950000;;;;;;
43196;SPS30;28816;49.852;18.282;2024-03-08T00:59:44;42.550000;;41.640000;38.240000;;;;;;
43196;SPS30;28816;49.852;18.282;2024-03-08T01:04:46;41.720000;;40.870000;38.350000;;;;;;
43196;SPS30;28816;49.852;18.282;2024-03-08T01:09:48;44.210000;;43.440000;40.350000;;;;;;
43196;SPS30;28816;49.852;18.282;2024-03-08T01:14:51;43.120000;;42.620000;39.650000;;;;;;
43196;SPS30;28816;49.852;18.282;2024-03-08T01:19:53;42.500000;;41.720000;39.070000;;;;;;
43196;SPS30;28816;49.852;18.282;2024-03-08T01:24:55;42.080000;;41.000000;37.960000;;;;;;
43196;SPS30;28816;49.852;18.282;2024-03-08T01:29:57;41.770000;;41.060000;37.950000;;;;;;
43196;SPS30;28816;49.852;18.282;2024-03-08T01:34:59;42.760000;;42.110000;39.610000;;;;;;
43196;SPS30;28816;49.852;18.282;2024-03-08T01:40:01;41.950000;;41.100000;38.090000;;;;;;
43196;SPS30;28816;49.852;18.282;2024-03-08T01:45:04;41.320000;;40.430000;37.400000;;;;;;
43196;SPS30;28816;49.852;18.282;2024-03-08T01:50:06;42.310000;;41.330000;38.120000;;;;;;
43196;SPS30;28816;49.852;18.282;2024-03-08T01:55:08;39.820000;;38.960000;35.740000;;;;;;
43196;SPS30;28816;49.852;18.282;2024-03-08T02:00:10;41.360000;;40.370000;36.960000;;;;;;
43196;SPS30;28816;49.852;18.282;2024-03-08T02:05:13;41.240000;;40.360000;37.450000;;;;;;
43196;SPS30;28816;49.852;18.282;2024-03-08T02:10:16;40.480000;;39.750000;36.450000;;;;;;
43196;SPS30;28816;49.852;18.282;2024-03-08T02:15:18;39.690000;;39.050000;36.420000;;;;;;
43196;SPS30;28816;49.852;18.282;2024-03-08T02:20:20;37.680000;;36.550000;33.830000;;;;;;
43196;SPS30;28816;49.852;18.282;2024-03-08T02:25:22;38.760000;;37.890000;34.990000;;;;;;
43196;SPS30;28816;49.852;18.282;2024-03-08T02:30:24;38.750000;;37.930000;35.420000;;;;;;
43196;SPS30;28816;49.852;18.282;2024-03-08T02:35:27;39.810000;;38.980000;36.190000;;;;;;
43196;SPS30;28816;49.852;18.282;2024-03-08T02:40:29;36.750000;;36.140000;33.460000;;;;;;
43196;SPS30;28816;49.852;18.282;2024-03-08T02:45:31;37.020000;;36.460000;33.350000;;;;;;
43196;SPS30;28816;49.852;18.282;2024-03-08T02:50:33;36.300000;;35.470000;32.960000;;;;;;
43196;SPS30;28816;49.852;18.282;2024-03-08T02:55:36;37.120000;;36.040000;33.230000;;;;;;
43196;SPS30;28816;49.852;18.282;2024-03-08T03:00:39;35.630000;;34.800000;32.240000;;;;;;
43196;SPS30;28816;49.852;18.282;2024-03-08T03:05:40;36.490000;;36.070000;33.510000;;;;;;
43196;SPS30;28816;49.852;18.282;2024-03-08T03:10:42;36.510000;;36.090000;33.310000;;;;;;
43196;SPS30;28816;49.852;18.282;2024-03-08T03:15:45;36.690000;;35.550000;33.090000;;;;;;
43196;SPS30;28816;49.852;18.282;2024-03-08T03:20:47;36.930000;;36.200000;33.660000;;;;;;
43196;SPS30;28816;49.852;18.282;2024-03-08T03:25:50;35.400000;;34.860000;32.390000;;;;;;
43196;SPS30;28816;49.852;18.282;2024-03-08T03:30:52;36.290000;;35.720000;33.550000;;;;;;
43196;SPS30;28816;49.852;18.282;2024-03-08T03:35:54;35.970000;;35.350000;32.700000;;;;;;
43196;SPS30;28816;49.852;18.282;2024-03-08T03:40:56;35.180000;;34.610000;32.200000;;;;;;
43196;SPS30;28816;49.852;18.282;2024-03-08T03:45:58;36.970000;;36.460000;33.740000;;;;;;
43196;SPS30;28816;49.852;18.282;2024-03-08T03:51:00;36.900000;;36.340000;34.050000;;;;;;
43196;SPS30;28816;49.852;18.282;2024-03-08T03:56:02;37.980000;;36.980000;34.030000;;;;;;
43196;SPS30;28816;49.852;18.282;2024-03-08T04:01:04;37.590000;;36.480000;34.010000;;;;;;
43196;SPS30;28816;49.852;18.282;2024-03-08T04:06:07;35.680000;;34.840000;31.900000;;;;;;
43196;SPS30;28816;49.852;18.282;2024-03-08T04:11:08;35.380000;;35.090000;32.670000;;;;;;
43196;SPS30;28816;49.852;18.282;2024-03-08T04:16:10;37.630000;;36.770000;34.360000;;;;;;
43196;SPS30;28816;49.852;18.282;2024-03-08T04:21:12;35.550000;;34.610000;31.980000;;;;;;
43196;SPS30;28816;49.852;18.282;2024-03-08T04:26:14;34.950000;;34.680000;31.890000;;;;;;
43196;SPS30;28816;49.852;18.282;2024-03-08T04:31:16;37.470000;;36.290000;33.000000;;;;;;
43196;SPS30;28816;49.852;18.282;2024-03-08T04:36:19;35.790000;;34.820000;32.150000;;;;;;
43196;SPS30;28816;49.852;18.282;2024-03-08T04:41:20;38.030000;;37.630000;35.120000;;;;;;
43196;SPS30;28816;49.852;18.282;2024-03-08T04:46:22;37.900000;;37.010000;33.900000;;;;;;
43196;SPS30;28816;49.852;18.282;2024-03-08T04:51:24;35.720000;;34.940000;32.120000;;;;;;
43196;SPS30;28816;49.852;18.282;2024-03-08T04:56:26;40.540000;;39.660000;36.610000;;;;;;
43196;SPS30;28816;49.852;18.282;2024-03-08T05:01:28;36.820000;;36.670000;34.410000;;;;;;
43196;SPS30;28816;49.852;18.282;2024-03-08T05:06:30;37.520000;;36.860000;34.300000;;;;;;
43196;SPS30;28816;49.852;18.282;2024-03-08T05:11:32;38.820000;;37.680000;34.610000;;;;;;
43196;SPS30;28816;49.852;18.282;2024-03-08T05:16:34;39.840000;;39.010000;36.310000;;;;;;
43196;SPS30;28816;49.852;18.282;2024-03-08T05:21:36;36.980000;;36.440000;33.720000;;;;;;
43196;SPS30;28816;49.852;18.282;2024-03-08T05:26:38;38.050000;;37.110000;34.060000;;;;;;
43196;SPS30;28816;49.852;18.282;2024-03-08T05:31:40;40.840000;;39.750000;36.370000;;;;;;
43196;SPS30;28816;49.852;18.282;2024-03-08T05:36:45;40.560000;;39.250000;35.940000;;;;;;
43196;SPS30;28816;49.852;18.282;2024-03-08T05:41:48;40.590000;;39.870000;37.030000;;;;;;
43196;SPS30;28816;49.852;18.282;2024-03-08T05:46:50;42.240000;;41.420000;38.140000;;;;;;
43196;SPS30;28816;49.852;18.282;2024-03-08T05:51:53;42.910000;;42.130000;39.160000;;;;;;
43196;SPS30;28816;49.852;18.282;2024-03-08T05:56:55;43.780000;;42.530000;38.550000;;;;;;
43196;SPS30;28816;49.852;18.282;2024-03-08T06:01:57;42.390000;;41.760000;39.030000;;;;;;
43196;SPS30;28816;49.852;18.282;2024-03-08T06:06:59;45.120000;;44.110000;41.050000;;;;;;
43196;SPS30;28816;49.852;18.282;2024-03-08T06:12:01;43.470000;;42.640000;39.580000;;;;;;
43196;SPS30;28816;49.852;18.282;2024-03-08T06:22:05;43.490000;;42.720000;39.090000;;;;;;
43196;SPS30;28816;49.852;18.282;2024-03-08T06:27:07;45.380000;;44.270000;40.660000;;;;;;
43196;SPS30;28816;49.852;18.282;2024-03-08T06:32:10;42.510000;;42.270000;39.260000;;;;;;
43196;SPS30;28816;49.852;18.282;2024-03-08T06:37:12;45.790000;;44.960000;42.090000;;;;;;
43196;SPS30;28816;49.852;18.282;2024-03-08T06:42:14;52.020000;;51.420000;48.150000;;;;;;
43196;SPS30;28816;49.852;18.282;2024-03-08T06:47:16;45.850000;;45.480000;42.570000;;;;;;
43196;SPS30;28816;49.852;18.282;2024-03-08T06:52:18;40.230000;;39.910000;37.210000;;;;;;
43196;SPS30;28816;49.852;18.282;2024-03-08T06:57:20;43.130000;;42.310000;38.800000;;;;;;
43196;SPS30;28816;49.852;18.282;2024-03-08T07:02:22;41.050000;;40.310000;37.620000;;;;;;
43196;SPS30;28816;49.852;18.282;2024-03-08T07:07:24;43.470000;;42.880000;40.200000;;;;;;
43196;SPS30;28816;49.852;18.282;2024-03-08T07:12:26;42.740000;;42.190000;38.930000;;;;;;
43196;SPS30;28816;49.852;18.282;2024-03-08T07:17:28;40.120000;;38.950000;36.240000;;;;;;
43196;SPS30;28816;49.852;18.282;2024-03-08T07:22:30;40.900000;;39.550000;36.170000;;;;;;
43196;SPS30;28816;49.852;18.282;2024-03-08T07:27:32;41.850000;;40.630000;37.210000;;;;;;
43196;SPS30;28816;49.852;18.282;2024-03-08T07:32:34;38.270000;;37.390000;34.330000;;;;;;
43196;SPS30;28816;49.852;18.282;2024-03-08T07:37:36;35.900000;;35.110000;32.350000;;;;;;
43196;SPS30;28816;49.852;18.282;2024-03-08T07:42:38;32.690000;;32.130000;29.960000;;;;;;
43196;SPS30;28816;49.852;18.282;2024-03-08T07:47:40;34.220000;;33.990000;31.850000;;;;;;
43196;SPS30;28816;49.852;18.282;2024-03-08T07:52:42;34.280000;;33.810000;31.860000;;;;;;
43196;SPS30;28816;49.852;18.282;2024-03-08T07:57:45;31.940000;;31.500000;29.220000;;;;;;
43196;SPS30;28816;49.852;18.282;2024-03-08T08:02:47;31.950000;;31.400000;29.260000;;;;;;
43196;SPS30;28816;49.852;18.282;2024-03-08T08:07:49;29.060000;;28.600000;26.670000;;;;;;
43196;SPS30;28816;49.852;18.282;2024-03-08T08:12:51;30.930000;;30.490000;28.670000;;;;;;
43196;SPS30;28816;49.852;18.282;2024-03-08T08:17:53;30.880000;;30.350000;27.890000;;;;;;
43196;SPS30;28816;49.852;18.282;2024-03-08T08:22:56;32.450000;;31.720000;29.710000;;;;;;
43196;SPS30;28816;49.852;18.282;2024-03-08T08:27:58;33.130000;;32.650000;30.630000;;;;;;
43196;SPS30;28816;49.852;18.282;2024-03-08T08:33:00;31.620000;;31.240000;28.810000;;;;;;
43196;SPS30;28816;49.852;18.282;2024-03-08T08:38:02;30.030000;;29.540000;27.420000;;;;;;
43196;SPS30;28816;49.852;18.282;2024-03-08T08:43:04;27.990000;;27.720000;25.870000;;;;;;
43196;SPS30;28816;49.852;18.282;2024-03-08T08:48:06;30.130000;;29.820000;27.950000;;;;;;
43196;SPS30;28816;49.852;18.282;2024-03-08T08:53:08;29.950000;;29.470000;27.140000;;;;;;
43196;SPS30;28816;49.852;18.282;2024-03-08T08:58:10;27.860000;;27.650000;25.590000;;;;;;
43196;SPS30;28816;49.852;18.282;2024-03-08T09:03:12;27.930000;;27.840000;26.440000;;;;;;
43196;SPS30;28816;49.852;18.282;2024-03-08T09:08:14;26.280000;;26.180000;24.230000;;;;;;
43196;SPS30;28816;49.852;18.282;2024-03-08T09:13:16;26.550000;;26.410000;24.640000;;;;;;
43196;SPS30;28816;49.852;18.282;2024-03-08T09:18:17;26.710000;;26.360000;24.920000;;;;;;
43196;SPS30;28816;49.852;18.282;2024-03-08T09:23:19;25.450000;;25.390000;24.120000;;;;;;
43196;SPS30;28816;49.852;18.282;2024-03-08T09:28:22;25.720000;;25.290000;23.980000;;;;;;
43196;SPS30;28816;49.852;18.282;2024-03-08T09:33:25;26.180000;;25.750000;24.230000;;;;;;
43196;SPS30;28816;49.852;18.282;2024-03-08T09:38:26;25.180000;;25.060000;23.680000;;;;;;
43196;SPS30;28816;49.852;18.282;2024-03-08T09:43:28;26.660000;;26.250000;24.400000;;;;;;
43196;SPS30;28816;49.852;18.282;2024-03-08T09:48:30;26.210000;;25.790000;24.020000;;;;;;
43196;SPS30;28816;49.852;18.282;2024-03-08T09:53:32;27.600000;;27.290000;25.350000;;;;;;
43196;SPS30;28816;49.852;18.282;2024-03-08T09:58:35;27.040000;;26.900000;24.930000;;;;;;
43196;SPS30;28816;49.852;18.282;2024-03-08T10:03:37;26.660000;;26.150000;24.610000;;;;;;
43196;SPS30;28816;49.852;18.282;2024-03-08T10:08:39;23.680000;;23.550000;22.080000;;;;;;
43196;SPS30;28816;49.852;18.282;2024-03-08T10:13:42;25.490000;;25.340000;23.890000;;;;;;
43196;SPS30;28816;49.852;18.282;2024-03-08T10:18:44;25.570000;;25.230000;23.460000;;;;;;
43196;SPS30;28816;49.852;18.282;2024-03-08T10:23:46;27.420000;;26.720000;25.020000;;;;;;
43196;SPS30;28816;49.852;18.282;2024-03-08T10:28:48;25.220000;;24.970000;23.060000;;;;;;
43196;SPS30;28816;49.852;18.282;2024-03-08T10:33:51;24.940000;;24.700000;23.240000;;;;;;
43196;SPS30;28816;49.852;18.282;2024-03-08T10:38:53;24.540000;;24.010000;22.360000;;;;;;
43196;SPS30;28816;49.852;18.282;2024-03-08T10:43:56;25.590000;;25.220000;23.560000;;;;;;
43196;SPS30;28816;49.852;18.282;2024-03-08T10:49:06;26.120000;;25.970000;24.280000;;;;;;
43196;SPS30;28816;49.852;18.282;2024-03-08T10:54:12;26.750000;;26.290000;24.590000;;;;;;
43196;SPS30;28816;49.852;18.282;2024-03-08T10:59:15;25.510000;;25.190000;23.310000;;;;;;
43196;SPS30;28816;49.852;18.282;2024-03-08T11:04:17;26.130000;;25.770000;24.050000;;;;;;
43196;SPS30;28816;49.852;18.282;2024-03-08T11:09:20;23.000000;;22.900000;21.270000;;;;;;
43196;SPS30;28816;49.852;18.282;2024-03-08T11:14:29;24.970000;;24.830000;23.360000;;;;;;
43196;SPS30;28816;49.852;18.282;2024-03-08T11:19:47;24.720000;;24.590000;23.010000;;;;;;
43196;SPS30;28816;49.852;18.282;2024-03-08T11:24:50;24.060000;;23.660000;22.180000;;;;;;
43196;SPS30;28816;49.852;18.282;2024-03-08T11:29:52;24.030000;;23.750000;22.450000;;;;;;
43196;SPS30;28816;49.852;18.282;2024-03-08T11:35:03;23.480000;;23.200000;21.630000;;;;;;
43196;SPS30;28816;49.852;18.282;2024-03-08T11:40:07;24.140000;;23.710000;22.020000;;;;;;
43196;SPS30;28816;49.852;18.282;2024-03-08T11:45:12;24.440000;;24.000000;22.250000;;;;;;
43196;SPS30;28816;49.852;18.282;2024-03-08T11:50:15;25.480000;;25.330000;23.810000;;;;;;
43196;SPS30;28816;49.852;18.282;2024-03-08T11:55:17;23.450000;;23.100000;21.740000;;;;;;
43196;SPS30;28816;49.852;18.282;2024-03-08T12:00:20;23.740000;;23.590000;22.010000;;;;;;
43196;SPS30;28816;49.852;18.282;2024-03-08T12:05:23;23.480000;;23.350000;21.990000;;;;;;
43196;SPS30;28816;49.852;18.282;2024-03-08T12:10:25;23.200000;;23.120000;21.530000;;;;;;
43196;SPS30;28816;49.852;18.282;2024-03-08T12:15:27;24.590000;;24.420000;23.370000;;;;;;
43196;SPS30;28816;49.852;18.282;2024-03-08T12:20:30;23.830000;;23.580000;22.200000;;;;;;
43196;SPS30;28816;49.852;18.282;2024-03-08T12:25:31;25.040000;;24.870000;23.050000;;;;;;
43196;SPS30;28816;49.852;18.282;2024-03-08T12:30:33;25.630000;;25.270000;23.670000;;;;;;
43196;SPS30;28816;49.852;18.282;2024-03-08T12:35:44;26.270000;;25.780000;24.080000;;;;;;
43196;SPS30;28816;49.852;18.282;2024-03-08T12:40:54;26.240000;;25.980000;24.320000;;;;;;
43196;SPS30;28816;49.852;18.282;2024-03-08T12:45:58;25.170000;;24.910000;23.480000;;;;;;
43196;SPS30;28816;49.852;18.282;2024-03-08T12:51:00;26.380000;;26.310000;24.390000;;;;;;
43196;SPS30;28816;49.852;18.282;2024-03-08T12:56:03;23.310000;;23.260000;21.680000;;;;;;
43196;SPS30;28816;49.852;18.282;2024-03-08T13:01:06;23.710000;;23.390000;22.020000;;;;;;
43196;SPS30;28816;49.852;18.282;2024-03-08T13:06:08;23.040000;;23.170000;21.750000;;;;;;
43196;SPS30;28816;49.852;18.282;2024-03-08T13:11:10;22.420000;;22.140000;20.530000;;;;;;
43196;SPS30;28816;49.852;18.282;2024-03-08T13:16:13;21.800000;;21.920000;20.340000;;;;;;
43196;SPS30;28816;49.852;18.282;2024-03-08T13:21:16;26.140000;;25.900000;24.130000;;;;;;
43196;SPS30;28816;49.852;18.282;2024-03-08T13:26:18;26.150000;;25.970000;24.700000;;;;;;
43196;SPS30;28816;49.852;18.282;2024-03-08T13:31:21;27.310000;;26.920000;25.290000;;;;;;
43196;SPS30;28816;49.852;18.282;2024-03-08T13:36:23;25.740000;;25.630000;23.940000;;;;;;
43196;SPS30;28816;49.852;18.282;2024-03-08T13:41:25;27.830000;;27.520000;25.540000;;;;;;
43196;SPS30;28816;49.852;18.282;2024-03-08T13:46:27;29.830000;;29.340000;26.940000;;;;;;
43196;SPS30;28816;49.852;18.282;2024-03-08T13:51:29;26.580000;;26.290000;24.820000;;;;;;
43196;SPS30;28816;49.852;18.282;2024-03-08T13:56:31;30.060000;;29.500000;27.580000;;;;;;
43196;SPS30;28816;49.852;18.282;2024-03-08T14:01:34;25.050000;;25.000000;23.380000;;;;;;
43196;SPS30;28816;49.852;18.282;2024-03-08T14:06:36;26.740000;;26.410000;24.940000;;;;;;
43196;SPS30;28816;49.852;18.282;2024-03-08T14:11:38;26.100000;;26.090000;24.570000;;;;;;
43196;SPS30;28816;49.852;18.282;2024-03-08T14:16:40;29.730000;;29.260000;26.970000;;;;;;
43196;SPS30;28816;49.852;18.282;2024-03-08T14:21:42;31.090000;;30.800000;28.960000;;;;;;
43196;SPS30;28816;49.852;18.282;2024-03-08T14:26:44;29.530000;;29.140000;27.330000;;;;;;
43196;SPS30;28816;49.852;18.282;2024-03-08T14:31:46;30.250000;;29.950000;28.330000;;;;;;
43196;SPS30;28816;49.852;18.282;2024-03-08T14:36:48;30.720000;;30.250000;28.140000;;;;;;
43196;SPS30;28816;49.852;18.282;2024-03-08T14:41:50;32.190000;;31.660000;29.300000;;;;;;
43196;SPS30;28816;49.852;18.282;2024-03-08T14:46:52;29.860000;;29.270000;27.290000;;;;;;
43196;SPS30;28816;49.852;18.282;2024-03-08T14:51:55;31.840000;;30.950000;28.460000;;;;;;
43196;SPS30;28816;49.852;18.282;2024-03-08T14:56:57;34.860000;;34.390000;32.350000;;;;;;
43196;SPS30;28816;49.852;18.282;2024-03-08T15:01:59;34.310000;;33.860000;31.370000;;;;;;
43196;SPS30;28816;49.852;18.282;2024-03-08T15:07:02;31.910000;;31.590000;29.110000;;;;;;
43196;SPS30;28816;49.852;18.282;2024-03-08T15:12:04;31.910000;;31.270000;28.750000;;;;;;
43196;SPS30;28816;49.852;18.282;2024-03-08T15:17:06;30.370000;;29.840000;27.620000;;;;;;
43196;SPS30;28816;49.852;18.282;2024-03-08T15:22:09;30.160000;;29.810000;27.720000;;;;;;
43196;SPS30;28816;49.852;18.282;2024-03-08T15:27:12;31.920000;;31.060000;29.010000;;;;;;
43196;SPS30;28816;49.852;18.282;2024-03-08T15:32:14;32.380000;;31.890000;29.420000;;;;;;
43196;SPS30;28816;49.852;18.282;2024-03-08T15:37:16;33.360000;;32.950000;30.650000;;;;;;
43196;SPS30;28816;49.852;18.282;2024-03-08T15:42:19;34.190000;;33.750000;31.580000;;;;;;
43196;SPS30;28816;49.852;18.282;2024-03-08T15:47:20;34.530000;;33.810000;31.430000;;;;;;
43196;SPS30;28816;49.852;18.282;2024-03-08T15:52:22;33.840000;;33.160000;30.760000;;;;;;
43196;SPS30;28816;49.852;18.282;2024-03-08T15:57:24;37.550000;;36.460000;33.140000;;;;;;
43196;SPS30;28816;49.852;18.282;2024-03-08T16:02:26;35.380000;;34.470000;31.790000;;;;;;
43196;SPS30;28816;49.852;18.282;2024-03-08T16:07:28;36.200000;;35.190000;32.240000;;;;;;
43196;SPS30;28816;49.852;18.282;2024-03-08T16:12:30;35.860000;;35.090000;32.410000;;;;;;
43196;SPS30;28816;49.852;18.282;2024-03-08T16:17:34;38.010000;;37.340000;34.420000;;;;;;
43196;SPS30;28816;49.852;18.282;2024-03-08T16:22:36;38.100000;;37.090000;34.270000;;;;;;
43196;SPS30;28816;49.852;18.282;2024-03-08T16:27:41;39.120000;;37.900000;34.790000;;;;;;
43196;SPS30;28816;49.852;18.282;2024-03-08T16:32:43;37.120000;;36.130000;33.640000;;;;;;
43196;SPS30;28816;49.852;18.282;2024-03-08T16:37:45;38.500000;;37.350000;34.120000;;;;;;
43196;SPS30;28816;49.852;18.282;2024-03-08T16:42:47;39.140000;;38.350000;35.480000;;;;;;
43196;SPS30;28816;49.852;18.282;2024-03-08T16:47:49;39.360000;;38.340000;34.830000;;;;;;
43196;SPS30;28816;49.852;18.282;2024-03-08T16:52:52;39.440000;;38.880000;35.610000;;;;;;
43196;SPS30;28816;49.852;18.282;2024-03-08T16:57:54;38.760000;;38.110000;35.260000;;;;;;
43196;SPS30;28816;49.852;18.282;2024-03-08T17:02:56;37.460000;;37.060000;34.500000;;;;;;
43196;SPS30;28816;49.852;18.282;2024-03-08T17:07:59;38.660000;;37.430000;34.510000;;;;;;
43196;SPS30;28816;49.852;18.282;2024-03-08T17:13:02;39.440000;;38.870000;35.990000;;;;;;
43196;SPS30;28816;49.852;18.282;2024-03-08T17:18:04;37.780000;;37.150000;34.820000;;;;;;
43196;SPS30;28816;49.852;18.282;2024-03-08T17:23:06;39.570000;;38.670000;35.390000;;;;;;
43196;SPS30;28816;49.852;18.282;2024-03-08T17:28:09;38.710000;;37.980000;34.950000;;;;;;
43196;SPS30;28816;49.852;18.282;2024-03-08T17:33:11;37.950000;;36.970000;34.190000;;;;;;
43196;SPS30;28816;49.852;18.282;2024-03-08T17:38:13;37.150000;;36.350000;33.760000;;;;;;
43196;SPS30;28816;49.852;18.282;2024-03-08T17:43:14;36.760000;;36.200000;33.680000;;;;;;
43196;SPS30;28816;49.852;18.282;2024-03-08T17:48:16;39.340000;;38.690000;35.550000;;;;;;
43196;SPS30;28816;49.852;18.282;2024-03-08T17:53:18;36.960000;;36.380000;33.530000;;;;;;
43196;SPS30;28816;49.852;18.282;2024-03-08T17:58:21;39.700000;;38.770000;35.600000;;;;;;
43196;SPS30;28816;49.852;18.282;2024-03-08T18:03:22;41.210000;;40.600000;37.680000;;;;;;
43196;SPS30;28816;49.852;18.282;2024-03-08T18:08:24;41.500000;;40.290000;37.090000;;;;;;
43196;SPS30;28816;49.852;18.282;2024-03-08T18:13:26;44.150000;;43.330000;39.810000;;;;;;
43196;SPS30;28816;49.852;18.282;2024-03-08T18:18:28;40.520000;;39.960000;37.660000;;;;;;
43196;SPS30;28816;49.852;18.282;2024-03-08T18:23:30;42.630000;;41.880000;38.580000;;;;;;
43196;SPS30;28816;49.852;18.282;2024-03-08T18:28:31;44.340000;;43.280000;40.050000;;;;;;
43196;SPS30;28816;49.852;18.282;2024-03-08T18:33:33;42.860000;;42.130000;39.300000;;;;;;
43196;SPS30;28816;49.852;18.282;2024-03-08T18:38:35;43.770000;;42.590000;39.350000;;;;;;
43196;SPS30;28816;49.852;18.282;2024-03-08T18:43:37;44.680000;;43.610000;40.500000;;;;;;
43196;SPS30;28816;49.852;18.282;2024-03-08T18:48:39;44.380000;;43.750000;40.470000;;;;;;
43196;SPS30;28816;49.852;18.282;2024-03-08T18:53:41;44.930000;;43.540000;39.850000;;;;;;
43196;SPS30;28816;49.852;18.282;2024-03-08T18:58:43;44.590000;;43.990000;40.760000;;;;;;
43196;SPS30;28816;49.852;18.282;2024-03-08T19:03:46;49.010000;;47.610000;43.720000;;;;;;
43196;SPS30;28816;49.852;18.282;2024-03-08T19:08:48;48.650000;;47.370000;44.040000;;;;;;
43196;SPS30;28816;49.852;18.282;2024-03-08T19:13:49;45.910000;;44.890000;41.620000;;;;;;
43196;SPS30;28816;49.852;18.282;2024-03-08T19:18:51;49.160000;;47.160000;42.620000;;;;;;
43196;SPS30;28816;49.852;18.282;2024-03-08T19:23:53;49.120000;;47.460000;43.760000;;;;;;
43196;SPS30;28816;49.852;18.282;2024-03-08T19:28:55;49.140000;;47.880000;44.050000;;;;;;
43196;SPS30;28816;49.852;18.282;2024-03-08T19:33:57;48.750000;;47.240000;43.270000;;;;;;
43196;SPS30;28816;49.852;18.282;2024-03-08T19:38:59;48.160000;;47.450000;43.670000;;;;;;
43196;SPS30;28816;49.852;18.282;2024-03-08T19:44:01;49.970000;;48.490000;44.460000;;;;;;
43196;SPS30;28816;49.852;18.282;2024-03-08T19:49:03;46.530000;;45.840000;42.320000;;;;;;
43196;SPS30;28816;49.852;18.282;2024-03-08T19:54:05;45.810000;;44.780000;40.790000;;;;;;
43196;SPS30;28816;49.852;18.282;2024-03-08T19:59:07;47.490000;;46.480000;42.790000;;;;;;
43196;SPS30;28816;49.852;18.282;2024-03-08T20:04:09;47.840000;;46.900000;43.420000;;;;;;
43196;SPS30;28816;49.852;18.282;2024-03-08T20:09:11;49.150000;;47.570000;43.360000;;;;;;
43196;SPS30;28816;49.852;18.282;2024-03-08T20:14:12;48.830000;;47.770000;43.950000;;;;;;
43196;SPS30;28816;49.852;18.282;2024-03-08T20:19:15;52.510000;;51.280000;47.330000;;;;;;
43196;SPS30;28816;49.852;18.282;2024-03-08T20:24:16;52.390000;;51.030000;47.060000;;;;;;
43196;SPS30;28816;49.852;18.282;2024-03-08T20:29:18;51.880000;;50.170000;45.780000;;;;;;
43196;SPS30;28816;49.852;18.282;2024-03-08T20:34:20;54.450000;;52.870000;47.720000;;;;;;
43196;SPS30;28816;49.852;18.282;2024-03-08T20:39:22;52.230000;;51.280000;47.590000;;;;;;
43196;SPS30;28816;49.852;18.282;2024-03-08T20:44:24;59.880000;;58.450000;53.990000;;;;;;
43196;SPS30;28816;49.852;18.282;2024-03-08T20:49:25;62.430000;;61.340000;57.300000;;;;;;
43196;SPS30;28816;49.852;18.282;2024-03-08T20:54:27;65.610000;;64.590000;59.720000;;;;;;
43196;SPS30;28816;49.852;18.282;2024-03-08T20:59:29;71.460000;;69.600000;63.970000;;;;;;
43196;SPS30;28816;49.852;18.282;2024-03-08T21:04:32;75.990000;;74.720000;69.110000;;;;;;
43196;SPS30;28816;49.852;18.282;2024-03-08T21:09:34;81.910000;;79.460000;72.810000;;;;;;
43196;SPS30;28816;49.852;18.282;2024-03-08T21:14:36;84.860000;;83.550000;77.410000;;;;;;
43196;SPS30;28816;49.852;18.282;2024-03-08T21:19:38;86.200000;;84.490000;78.130000;;;;;;
43196;SPS30;28816;49.852;18.282;2024-03-08T21:24:39;88.120000;;86.120000;79.060000;;;;;;
43196;SPS30;28816;49.852;18.282;2024-03-08T21:29:41;75.420000;;73.100000;67.250000;;;;;;
43196;SPS30;28816;49.852;18.282;2024-03-08T21:34:43;82.720000;;80.010000;73.270000;;;;;;
43196;SPS30;28816;49.852;18.282;2024-03-08T21:39:45;68.620000;;67.060000;62.500000;;;;;;
43196;SPS30;28816;49.852;18.282;2024-03-08T21:44:47;68.750000;;67.110000;62.080000;;;;;;
43196;SPS30;28816;49.852;18.282;2024-03-08T21:49:49;71.070000;;69.540000;64.770000;;;;;;
43196;SPS30;28816;49.852;18.282;2024-03-08T21:54:51;70.810000;;69.360000;63.940000;;;;;;
43196;SPS30;28816;49.852;18.282;2024-03-08T21:59:53;71.920000;;70.510000;64.600000;;;;;;
43196;SPS30;28816;49.852;18.282;2024-03-08T22:04:55;72.310000;;70.880000;65.280000;;;;;;
43196;SPS30;28816;49.852;18.282;2024-03-08T22:09:57;71.540000;;70.000000;64.980000;;;;;;
43196;SPS30;28816;49.852;18.282;2024-03-08T22:14:59;76.480000;;74.020000;67.640000;;;;;;
43196;SPS30;28816;49.852;18.282;2024-03-08T22:20:01;78.330000;;75.900000;70.060000;;;;;;
43196;SPS30;28816;49.852;18.282;2024-03-08T22:25:03;80.060000;;78.380000;72.580000;;;;;;
43196;SPS30;28816;49.852;18.282;2024-03-08T22:30:06;81.180000;;79.360000;72.910000;;;;;;
43196;SPS30;28816;49.852;18.282;2024-03-08T22:35:09;88.030000;;85.860000;79.480000;;;;;;